createdAt,value
2022-10-12T00:01:19.146Z,6.23
2022-10-12T00:04:04.679Z,6.73
2022-10-12T00:06:50.197Z,6.67
2022-10-12T00:09:35.852Z,6.60
2022-10-12T00:12:21.577Z,7.13
2022-10-12T00:15:07.471Z,6.33
2022-10-12T00:17:53.737Z,6.17
2022-10-12T00:20:39.493Z,6.13
2022-10-12T00:23:25.038Z,5.60
2022-10-12T00:26:19.331Z,6.40
2022-10-12T00:29:05.346Z,7.00
2022-10-12T00:31:51.148Z,6.20
2022-10-12T00:34:36.800Z,6.07
2022-10-12T00:37:22.494Z,7.00
2022-10-12T00:40:08.503Z,5.30
2022-10-12T00:42:54.223Z,5.03
2022-10-12T00:45:39.767Z,10.33
2022-10-12T00:48:25.857Z,7.63
2022-10-12T00:51:12.133Z,5.00
2022-10-12T00:54:02.818Z,6.17
2022-10-12T00:56:52.489Z,4.77
2022-10-12T00:59:50.642Z,5.07
2022-10-12T01:02:37.990Z,5.07
2022-10-12T01:05:24.137Z,6.77
2022-10-12T01:08:09.789Z,6.27
2022-10-12T01:10:55.561Z,5.03
2022-10-12T01:13:41.131Z,5.13
2022-10-12T01:16:40.425Z,5.50
2022-10-12T01:20:03.534Z,5.77
2022-10-12T01:23:17.376Z,4.97
2022-10-12T01:26:35.778Z,5.53
2022-10-12T01:30:04.697Z,5.07
2022-10-12T01:33:17.197Z,4.40
2022-10-12T01:36:27.471Z,3.70
2022-10-12T01:39:21.432Z,3.97
2022-10-12T01:42:16.237Z,4.67
2022-10-12T01:45:20.750Z,6.80
2022-10-12T01:48:06.474Z,3.83
2022-10-12T01:50:57.533Z,3.90
2022-10-12T01:54:17.138Z,5.00
2022-10-12T01:57:27.933Z,3.80
2022-10-12T02:00:16.820Z,4.20
2022-10-12T02:03:16.365Z,6.77
2022-10-12T02:06:07.036Z,4.77
2022-10-12T02:09:06.191Z,4.17
2022-10-12T02:11:54.931Z,6.60
2022-10-12T02:14:47.346Z,5.23
2022-10-12T02:17:35.064Z,4.87
2022-10-12T02:20:23.452Z,4.13
2022-10-12T02:23:10.593Z,5.33
2022-10-12T02:25:57.589Z,4.63
2022-10-12T02:28:44.633Z,3.30
2022-10-12T02:31:58.303Z,4.37
2022-10-12T02:35:08.458Z,5.27
2022-10-12T02:37:56.629Z,6.30
2022-10-12T02:40:52.709Z,4.67
2022-10-12T02:43:45.731Z,4.57
2022-10-12T02:46:34.907Z,5.50
2022-10-12T02:49:23.116Z,4.70
2022-10-12T02:52:08.942Z,6.73
2022-10-12T02:54:54.466Z,5.00
2022-10-12T02:57:40.273Z,4.87
2022-10-12T03:00:26.402Z,4.63
2022-10-12T03:03:12.244Z,5.23
2022-10-12T03:05:57.979Z,5.10
2022-10-12T03:08:43.840Z,4.53
2022-10-12T03:11:29.311Z,5.23
2022-10-12T03:14:16.838Z,5.03
2022-10-12T03:17:02.544Z,7.53
2022-10-12T03:19:47.996Z,6.43
2022-10-12T03:22:33.614Z,5.57
2022-10-12T03:25:19.227Z,7.70
2022-10-12T03:28:04.657Z,6.97
2022-10-12T03:30:50.354Z,12.23
2022-10-12T03:33:36.309Z,8.37
2022-10-12T03:36:22.532Z,12.47
2022-10-12T03:39:09.125Z,9.47
2022-10-12T03:41:56.316Z,11.03
2022-10-12T03:44:42.622Z,13.27
2022-10-12T03:47:29.523Z,6.97
2022-10-12T03:50:19.819Z,7.37
2022-10-12T03:53:07.095Z,8.23
2022-10-12T03:55:52.788Z,6.23
2022-10-12T03:58:38.399Z,6.20
2022-10-12T04:01:24.506Z,7.57
2022-10-12T04:04:11.204Z,5.33
2022-10-12T04:06:56.629Z,8.23
2022-10-12T04:09:42.415Z,4.97
2022-10-12T04:12:28.228Z,7.07
2022-10-12T04:15:14.535Z,5.97
2022-10-12T04:18:00.333Z,5.63
2022-10-12T04:20:48.860Z,4.67
2022-10-12T04:23:34.367Z,4.93
2022-10-12T04:26:22.559Z,4.20
2022-10-12T04:29:08.586Z,6.37
2022-10-12T04:31:54.434Z,5.23
2022-10-12T04:34:40.310Z,4.40
2022-10-12T04:37:27.886Z,3.73
2022-10-12T04:40:13.741Z,4.90
2022-10-12T04:42:59.315Z,6.27
2022-10-12T04:45:45.212Z,4.70
2022-10-12T04:48:30.957Z,4.57
2022-10-12T04:51:16.887Z,4.50
2022-10-12T04:54:02.578Z,5.20
2022-10-12T04:56:48.422Z,4.20
2022-10-12T04:59:34.048Z,8.53
2022-10-12T05:02:19.400Z,6.97
2022-10-12T05:05:05.306Z,5.40
2022-10-12T05:07:51.947Z,5.30
2022-10-12T05:10:37.485Z,4.53
2022-10-12T05:13:23.115Z,5.00
2022-10-12T05:16:08.499Z,3.30
2022-10-12T05:18:54.213Z,6.33
2022-10-12T05:21:40.407Z,4.90
2022-10-12T05:24:26.109Z,3.83
2022-10-12T05:27:11.654Z,3.90
2022-10-12T05:29:57.226Z,3.40
2022-10-12T05:32:44.473Z,5.63
2022-10-12T05:35:30.192Z,3.77
2022-10-12T05:38:15.735Z,5.00
2022-10-12T05:41:01.436Z,3.30
2022-10-12T05:43:46.992Z,6.20
2022-10-12T05:46:32.429Z,4.47
2022-10-12T05:49:18.012Z,3.27
2022-10-12T05:52:03.962Z,7.00
2022-10-12T05:54:49.859Z,5.63
2022-10-12T05:57:36.613Z,3.27
2022-10-12T06:00:22.674Z,5.82
2022-10-12T06:03:08.275Z,11.00
2022-10-12T06:05:53.853Z,4.88
2022-10-12T06:08:39.612Z,3.17
2022-10-12T06:11:25.072Z,5.45
2022-10-12T06:14:10.856Z,3.10
2022-10-12T06:16:56.504Z,7.03
2022-10-12T06:19:42.156Z,4.63
2022-10-12T06:22:27.631Z,6.95
2022-10-12T06:25:13.249Z,3.85
2022-10-12T06:27:58.969Z,3.28
2022-10-12T06:30:47.191Z,4.57
2022-10-12T06:33:33.426Z,3.58
2022-10-12T06:36:19.365Z,8.20
2022-10-12T06:39:05.086Z,11.18
2022-10-12T06:41:51.048Z,7.10
2022-10-12T06:44:38.361Z,10.25
2022-10-12T06:47:23.887Z,5.45
2022-10-12T06:50:09.707Z,9.20
2022-10-12T06:52:55.556Z,8.23
2022-10-12T06:55:41.724Z,10.00
2022-10-12T06:58:27.180Z,12.32
2022-10-12T07:01:12.744Z,9.50
2022-10-12T07:04:00.708Z,10.55
2022-10-12T07:06:46.800Z,13.63
2022-10-12T07:09:32.469Z,13.95
2022-10-12T07:12:18.328Z,10.07
2022-10-12T07:15:06.174Z,11.50
2022-10-12T07:17:51.639Z,7.05
2022-10-12T07:20:40.021Z,5.72
2022-10-12T07:23:30.911Z,6.40
2022-10-12T07:26:16.831Z,4.07
2022-10-12T07:29:03.382Z,11.23
2022-10-12T07:31:51.979Z,10.23
2022-10-12T07:34:38.461Z,5.68
2022-10-12T07:37:24.081Z,21.58
2022-10-12T07:40:10.254Z,9.57
2022-10-12T07:43:15.279Z,7.05
2022-10-12T07:46:04.033Z,5.78
2022-10-12T07:48:50.580Z,5.90
2022-10-12T07:51:37.500Z,7.68
2022-10-12T07:54:28.969Z,6.57
2022-10-12T07:57:15.344Z,5.55
2022-10-12T08:00:00.798Z,11.13
2022-10-12T08:02:46.403Z,8.30
2022-10-12T08:05:32.036Z,9.18
2022-10-12T08:08:17.489Z,24.48
2022-10-12T08:11:03.861Z,10.85
2022-10-12T08:13:49.672Z,13.77
2022-10-12T08:16:35.490Z,12.50
2022-10-12T08:19:21.426Z,13.27
2022-10-12T08:22:07.150Z,16.27
2022-10-12T08:24:52.585Z,8.55
2022-10-12T08:27:38.707Z,19.15
2022-10-12T08:30:26.915Z,10.52
2022-10-12T08:33:13.470Z,16.08
2022-10-12T08:36:03.242Z,12.43
2022-10-12T08:38:56.489Z,8.30
2022-10-12T08:42:00.221Z,14.52
2022-10-12T08:44:58.253Z,12.00
2022-10-12T08:48:00.550Z,11.38
2022-10-12T08:54:08.131Z,10.23
2022-10-12T08:56:54.785Z,5.13
2022-10-12T08:59:40.367Z,8.60
2022-10-12T09:02:53.954Z,7.13
2022-10-12T09:06:11.916Z,6.95
2022-10-12T09:09:03.667Z,11.45
2022-10-12T09:12:22.808Z,6.00
2022-10-12T09:15:23.080Z,7.68
2022-10-12T09:18:45.755Z,10.85
2022-10-12T09:21:32.352Z,8.70
2022-10-12T09:24:27.467Z,6.43
2022-10-12T09:27:19.297Z,4.18
2022-10-12T09:30:05.651Z,6.38
2022-10-12T09:33:09.988Z,5.93
2022-10-12T09:35:56.768Z,5.57
2022-10-12T09:38:42.193Z,6.93
2022-10-12T09:41:35.604Z,6.15
2022-10-12T09:44:42.197Z,6.18
2022-10-12T09:47:33.394Z,5.72
2022-10-12T09:50:39.932Z,5.03
2022-10-12T09:53:46.578Z,6.80
2022-10-12T09:56:39.731Z,6.32
2022-10-12T09:59:43.134Z,7.15
2022-10-12T10:02:29.070Z,6.65
2022-10-12T10:05:33.504Z,8.32
2022-10-12T10:08:24.008Z,4.13
2022-10-12T10:11:20.553Z,5.20
2022-10-12T10:14:06.563Z,5.28
2022-10-12T10:16:54.728Z,5.38
2022-10-12T10:19:40.605Z,6.40
2022-10-12T10:22:26.578Z,7.13
2022-10-12T10:25:20.689Z,6.05
2022-10-12T10:28:22.889Z,3.83
2022-10-12T10:31:16.043Z,8.07
2022-10-12T10:34:07.257Z,6.28
2022-10-12T10:36:56.141Z,4.85
2022-10-12T10:39:49.631Z,4.93
2022-10-12T10:42:35.318Z,4.88
2022-10-12T10:45:31.037Z,5.22
2022-10-12T10:48:20.383Z,3.55
2022-10-12T10:51:07.632Z,5.63
2022-10-12T10:53:53.204Z,4.55
2022-10-12T10:56:38.891Z,6.05
2022-10-12T10:59:46.715Z,6.53
2022-10-12T11:02:40.525Z,4.07
2022-10-12T11:05:37.637Z,3.40
2022-10-12T11:08:26.658Z,4.28
2022-10-12T11:11:21.951Z,3.75
2022-10-12T11:14:20.706Z,7.05
2022-10-12T11:17:14.926Z,2.65
2022-10-12T11:20:34.432Z,3.40
2022-10-12T11:23:45.840Z,5.00
2022-10-12T11:26:37.410Z,3.70
2022-10-12T11:29:23.369Z,3.05
2022-10-12T11:32:25.028Z,3.38
2022-10-12T11:35:27.582Z,4.10
2022-10-12T11:38:22.415Z,6.18
2022-10-12T11:41:35.508Z,4.50
2022-10-12T11:44:37.288Z,3.65
2022-10-12T11:47:40.931Z,2.22
2022-10-12T11:50:32.967Z,2.42
2022-10-12T11:53:21.787Z,3.67
2022-10-12T11:56:47.077Z,7.75
2022-10-12T11:59:55.452Z,5.60
2022-10-12T12:02:45.861Z,3.00
2022-10-12T12:05:32.569Z,3.72
2022-10-12T12:08:41.187Z,3.42
2022-10-12T12:11:29.118Z,4.93
2022-10-12T12:14:27.129Z,3.03
2022-10-12T12:17:18.473Z,4.78
2022-10-12T12:20:42.808Z,2.28
2022-10-12T12:23:49.255Z,1.80
2022-10-12T12:26:34.677Z,3.45
2022-10-12T12:29:27.970Z,4.30
2022-10-12T12:32:13.455Z,2.03
2022-10-12T12:35:00.865Z,8.00
2022-10-12T12:37:48.100Z,3.95
2022-10-12T12:40:34.485Z,2.00
2022-10-12T12:43:28.871Z,5.55
2022-10-12T12:46:15.444Z,3.35
2022-10-12T12:49:02.733Z,2.92
2022-10-12T12:51:51.460Z,1.63
2022-10-12T12:54:52.381Z,1.75
2022-10-12T12:57:57.013Z,3.25
2022-10-12T13:00:54.741Z,5.30
2022-10-12T13:03:49.862Z,2.55
2022-10-12T13:07:03.308Z,3.70
2022-10-12T13:10:07.677Z,3.58
2022-10-12T13:13:16.660Z,3.50
2022-10-12T13:16:28.663Z,2.65
2022-10-12T13:19:23.436Z,2.05
2022-10-12T13:22:32.904Z,3.95
2022-10-12T13:25:41.982Z,2.97
2022-10-12T13:28:29.812Z,4.65
2022-10-12T13:31:38.181Z,2.50
2022-10-12T13:34:38.469Z,2.10
2022-10-12T13:37:31.051Z,2.45
2022-10-12T13:40:37.859Z,2.80
2022-10-12T13:43:28.208Z,4.75
2022-10-12T13:46:34.443Z,3.45
2022-10-12T13:49:36.233Z,3.80
2022-10-12T13:52:32.452Z,1.27
2022-10-12T13:55:18.817Z,1.75
2022-10-12T13:58:04.453Z,2.83
2022-10-12T14:00:50.274Z,3.20
2022-10-12T14:03:39.873Z,3.83
2022-10-12T14:06:38.288Z,3.33
2022-10-12T14:09:25.788Z,3.65
2022-10-12T14:12:12.480Z,3.40
2022-10-12T14:14:58.708Z,1.70
2022-10-12T14:17:47.346Z,2.00
2022-10-12T14:20:39.348Z,1.55
2022-10-12T14:23:25.339Z,2.75
2022-10-12T14:26:26.171Z,2.15
2022-10-12T14:29:33.218Z,2.15
2022-10-12T14:32:26.385Z,1.90
2022-10-12T14:35:27.444Z,4.45
2022-10-12T14:38:40.468Z,3.08
2022-10-12T14:41:44.580Z,1.90
2022-10-12T14:44:41.785Z,3.17
2022-10-12T14:47:34.801Z,2.00
2022-10-12T14:50:21.845Z,2.28
2022-10-12T14:53:11.714Z,2.80
2022-10-12T14:55:57.152Z,2.35
2022-10-12T14:58:42.470Z,2.95
2022-10-12T15:01:28.038Z,2.72
2022-10-12T15:04:14.257Z,2.47
2022-10-12T15:06:59.917Z,2.38
2022-10-12T15:09:46.811Z,1.80
2022-10-12T15:12:32.417Z,1.38
2022-10-12T15:15:47.604Z,3.30
2022-10-12T15:18:33.382Z,3.53
2022-10-12T15:21:19.905Z,1.50
2022-10-12T15:24:15.347Z,2.45
2022-10-12T15:27:01.131Z,2.13
2022-10-12T15:29:48.144Z,2.03
2022-10-12T15:32:33.558Z,1.77
2022-10-12T15:35:23.404Z,3.10
2022-10-12T15:38:10.102Z,3.10
2022-10-12T15:40:58.205Z,2.45
2022-10-12T15:43:44.234Z,2.20
2022-10-12T15:46:29.942Z,5.75
2022-10-12T15:49:19.439Z,2.15
2022-10-12T15:52:09.842Z,3.45
2022-10-12T15:54:56.017Z,2.08
2022-10-12T15:57:41.621Z,3.13
2022-10-12T16:00:29.312Z,6.30
2022-10-12T16:03:25.933Z,2.20
2022-10-12T16:06:12.395Z,1.85
2022-10-12T16:08:58.152Z,2.40
2022-10-12T16:11:43.963Z,3.25
2022-10-12T16:14:29.553Z,4.13
2022-10-12T16:17:15.558Z,5.15
2022-10-12T16:20:01.175Z,3.05
2022-10-12T16:22:47.829Z,3.75
2022-10-12T16:25:34.487Z,2.85
2022-10-12T16:28:21.293Z,2.65
2022-10-12T16:31:13.428Z,6.28
2022-10-12T16:33:58.929Z,3.60
2022-10-12T16:36:44.636Z,3.17
2022-10-12T16:39:30.551Z,5.93
2022-10-12T16:42:16.244Z,3.10
2022-10-12T16:45:03.047Z,3.55
2022-10-12T16:47:51.741Z,2.88
2022-10-12T16:50:40.753Z,3.05
2022-10-12T16:53:26.928Z,4.00
2022-10-12T16:56:12.439Z,4.72
2022-10-12T16:58:59.126Z,3.45
2022-10-12T17:01:44.855Z,4.10
2022-10-12T17:04:30.559Z,6.78
2022-10-12T17:07:16.463Z,4.93
2022-10-12T17:10:02.176Z,4.28
2022-10-12T17:12:47.720Z,3.83
2022-10-12T17:15:33.191Z,7.65
2022-10-12T17:18:18.550Z,4.28
2022-10-12T17:21:04.350Z,4.88
2022-10-12T17:23:50.350Z,4.30
2022-10-12T17:26:40.201Z,5.07
2022-10-12T17:29:28.709Z,7.10
2022-10-12T17:32:14.730Z,5.22
2022-10-12T17:35:01.104Z,8.75
2022-10-12T17:37:46.453Z,6.13
2022-10-12T17:40:32.080Z,8.07
2022-10-12T17:43:18.421Z,6.80
2022-10-12T17:46:07.279Z,5.65
2022-10-12T17:48:52.897Z,6.35
2022-10-12T17:51:38.664Z,7.10
2022-10-12T17:54:26.666Z,4.50
2022-10-12T17:57:12.325Z,7.03
2022-10-12T17:59:57.808Z,6.05
2022-10-12T18:02:44.326Z,5.95
2022-10-12T18:05:30.048Z,6.68
2022-10-12T18:08:15.616Z,6.18
2022-10-12T18:11:02.933Z,8.88
2022-10-12T18:13:51.592Z,11.63
2022-10-12T18:16:38.245Z,9.43
2022-10-12T18:19:23.764Z,19.10
2022-10-12T18:22:09.369Z,56.22
2022-10-12T18:24:54.831Z,158.07
2022-10-12T18:27:40.626Z,184.82
2022-10-12T18:30:26.089Z,162.95
2022-10-12T18:33:17.512Z,115.95
2022-10-12T18:36:13.341Z,96.78
2022-10-12T18:39:03.277Z,88.13
2022-10-12T18:41:51.850Z,108.60
2022-10-12T18:44:37.807Z,95.00
2022-10-12T18:47:24.512Z,86.47
2022-10-12T18:50:10.214Z,78.43
2022-10-12T18:52:56.185Z,76.85
2022-10-12T18:55:41.923Z,73.78
2022-10-12T18:58:27.720Z,86.20
2022-10-12T19:01:17.759Z,72.82
2022-10-12T19:04:04.184Z,66.68
2022-10-12T19:06:53.190Z,58.75
2022-10-12T19:09:41.101Z,49.47
2022-10-12T19:12:26.630Z,53.63
2022-10-12T19:15:12.079Z,50.25
2022-10-12T19:17:57.671Z,39.55
2022-10-12T19:20:43.067Z,35.70
2022-10-12T19:23:29.838Z,40.70
2022-10-12T19:26:18.284Z,35.10
2022-10-12T19:29:04.744Z,41.72
2022-10-12T19:31:51.056Z,33.28
2022-10-12T19:34:36.853Z,30.50
2022-10-12T19:37:22.861Z,34.83
2022-10-12T19:40:12.486Z,26.42
2022-10-12T19:42:58.236Z,23.67
2022-10-12T19:45:44.243Z,23.23
2022-10-12T19:48:30.361Z,17.08
2022-10-12T19:51:16.872Z,27.13
2022-10-12T19:54:09.431Z,21.00
2022-10-12T19:56:55.518Z,20.08
2022-10-12T19:59:41.108Z,22.80
2022-10-12T20:02:26.644Z,16.40
2022-10-12T20:05:12.527Z,16.45
2022-10-12T20:07:58.498Z,18.48
2022-10-12T20:10:44.361Z,17.60
2022-10-12T20:13:30.530Z,19.27
2022-10-12T20:16:18.461Z,17.00
2022-10-12T20:19:05.209Z,21.13
2022-10-12T20:21:50.654Z,18.10
2022-10-12T20:24:37.363Z,17.63
2022-10-12T20:27:22.982Z,14.77
2022-10-12T20:30:10.057Z,15.70
2022-10-12T20:32:56.062Z,12.73
2022-10-12T20:35:49.367Z,11.13
2022-10-12T20:38:34.792Z,11.25
2022-10-12T20:41:25.073Z,13.07
2022-10-12T20:44:10.858Z,14.50
2022-10-12T20:46:56.299Z,13.93
2022-10-12T20:49:41.775Z,11.50
2022-10-12T20:52:27.245Z,13.00
2022-10-12T20:55:12.633Z,8.10
2022-10-12T20:57:58.365Z,12.45
2022-10-12T21:00:44.053Z,11.67
2022-10-12T21:03:30.098Z,11.80
2022-10-12T21:06:17.347Z,10.97
2022-10-12T21:09:03.024Z,9.60
2022-10-12T21:11:48.548Z,10.30
2022-10-12T21:14:34.439Z,9.47
2022-10-12T21:17:20.367Z,7.77
2022-10-12T21:20:06.281Z,8.73
2022-10-12T21:22:51.818Z,13.17
2022-10-12T21:25:37.160Z,48.63
2022-10-12T21:28:24.073Z,24.57
2022-10-12T21:31:10.662Z,22.37
2022-10-12T21:33:56.019Z,20.20
2022-10-12T21:36:41.739Z,24.13
2022-10-12T21:39:27.580Z,24.27
2022-10-12T21:42:12.928Z,20.70
2022-10-12T21:44:58.264Z,17.27
2022-10-12T21:47:43.833Z,20.87
2022-10-12T21:50:29.345Z,18.43
2022-10-12T21:53:15.149Z,17.77
2022-10-12T21:56:16.372Z,23.10
2022-10-12T21:59:03.840Z,18.67
2022-10-12T22:01:49.520Z,17.63
2022-10-12T22:04:35.141Z,16.97
2022-10-12T22:07:20.584Z,12.17
2022-10-12T22:10:06.676Z,18.33
2022-10-12T22:12:54.726Z,12.67
2022-10-12T22:15:40.343Z,11.33
2022-10-12T22:18:30.218Z,11.60
2022-10-12T22:21:18.141Z,11.97
2022-10-12T22:24:04.101Z,12.50
2022-10-12T22:26:49.700Z,12.63
2022-10-12T22:29:35.353Z,13.20
2022-10-12T22:32:21.188Z,15.33
2022-10-12T22:35:07.441Z,10.90
2022-10-12T22:37:53.308Z,11.03
2022-10-12T22:40:38.688Z,11.93
2022-10-12T22:43:28.137Z,11.23
2022-10-12T22:46:13.919Z,12.57
2022-10-12T22:48:59.755Z,10.43
2022-10-12T22:51:45.459Z,10.97
2022-10-12T22:54:30.956Z,11.20
2022-10-12T22:57:16.450Z,9.70
2022-10-12T23:00:01.921Z,8.50
2022-10-12T23:02:49.836Z,13.70
2022-10-12T23:05:35.349Z,8.05
2022-10-12T23:08:20.854Z,11.70
2022-10-12T23:11:08.719Z,8.57
2022-10-12T23:13:56.155Z,10.43
2022-10-12T23:16:41.992Z,11.57
2022-10-12T23:19:27.500Z,7.90
2022-10-12T23:22:13.062Z,7.77
2022-10-12T23:24:58.528Z,10.10
2022-10-12T23:27:44.054Z,9.68
2022-10-12T23:30:29.668Z,7.55
2022-10-12T23:33:15.633Z,7.90
2022-10-12T23:36:05.048Z,9.85
2022-10-12T23:38:50.788Z,10.97
2022-10-12T23:41:36.252Z,8.70
2022-10-12T23:44:21.703Z,7.67
2022-10-12T23:47:07.228Z,8.85
2022-10-12T23:49:52.558Z,10.20
2022-10-12T23:52:38.330Z,11.00
2022-10-12T23:55:24.035Z,8.93
2022-10-12T23:58:09.610Z,11.40
